Time;durP1;ratioP1;P1;durP2;ratioP2;P2;SDS_P1;SDS_P2;PMS_P1;PMS_P2;Temp;Humidity;BMP_temperature;BMP_pressure;BME280_temperature;BME280_humidity;BME280_pressure;Samples;Min_cycle;Max_cycle;Signal;HPM_P1;HPM_P2
2021/08/03 00:02:03;;;;;;;13.05;6.65;;;;;;;13.04;100.00;100903.41;5064395;28;20052;-68
2021/08/03 00:04:40;;;;;;;12.77;5.68;;;;;;;13.08;100.00;100910.09;5062133;28;20124;-68
2021/08/03 00:07:09;;;;;;;9.60;5.80;;;;;;;13.07;100.00;100903.06;5067191;28;20584;-70
2021/08/03 00:09:39;;;;;;;10.68;6.28;;;;;;;13.03;100.00;100900.91;5067011;28;20394;-68
2021/08/03 00:12:08;;;;;;;11.20;5.70;;;;;;;12.75;100.00;100902.22;5062330;28;20052;-67
2021/08/03 00:14:37;;;;;;;15.50;6.68;;;;;;;12.73;100.00;100906.94;5071624;28;20109;-67
2021/08/03 00:17:06;;;;;;;14.35;6.80;;;;;;;12.71;100.00;100911.63;5069558;28;20041;-67
2021/08/03 00:19:33;;;;;;;15.35;6.97;;;;;;;12.74;100.00;100908.63;5067460;28;20090;-67
2021/08/03 00:22:03;;;;;;;11.43;6.40;;;;;;;12.75;100.00;100907.56;5068201;28;20106;-69
2021/08/03 00:24:31;;;;;;;10.93;6.25;;;;;;;12.81;100.00;100903.38;5070334;28;20178;-68
2021/08/03 00:27:00;;;;;;;11.52;7.28;;;;;;;12.75;100.00;100907.56;5071831;28;20113;-68
2021/08/03 00:29:28;;;;;;;14.05;5.93;;;;;;;12.72;100.00;100909.78;5069415;28;20041;-68
2021/08/03 00:31:56;;;;;;;10.50;6.35;;;;;;;12.82;100.00;100904.22;5065989;28;20571;-69
2021/08/03 00:34:24;;;;;;;16.80;6.93;;;;;;;12.81;100.00;100897.19;5070642;28;20086;-68
2021/08/03 00:36:52;;;;;;;13.00;6.85;;;;;;;12.75;100.00;100888.00;5065511;28;20090;-69
2021/08/03 00:39:23;;;;;;;15.75;6.53;;;;;;;12.78;100.00;100890.31;5067236;28;20098;-69
2021/08/03 00:41:54;;;;;;;11.90;6.28;;;;;;;12.71;100.00;100886.69;5067748;28;20098;-70
2021/08/03 00:44:38;;;;;;;12.88;6.38;;;;;;;12.74;100.00;100887.19;5069142;28;20033;-70
2021/08/03 00:47:06;;;;;;;11.35;5.85;;;;;;;12.70;100.00;100882.31;5065151;28;20040;-69
2021/08/03 00:49:34;;;;;;;11.25;5.85;;;;;;;12.67;100.00;100880.00;5068652;28;20075;-69
2021/08/03 00:52:03;;;;;;;10.75;5.63;;;;;;;12.65;100.00;100882.84;5069213;28;20074;-72
2021/08/03 00:54:32;;;;;;;14.18;5.90;;;;;;;12.61;100.00;100880.72;5066549;28;20036;-70
2021/08/03 00:57:01;;;;;;;14.18;5.80;;;;;;;12.62;100.00;100877.84;5072302;28;20040;-72
2021/08/03 00:59:29;;;;;;;8.40;4.88;;;;;;;12.60;100.00;100869.13;5069174;28;20041;-73
2021/08/03 01:01:57;;;;;;;8.80;5.13;;;;;;;12.68;100.00;100866.41;5065760;28;20432;-72
2021/08/03 01:04:25;;;;;;;8.77;5.65;;;;;;;12.72;100.00;100865.06;5068087;28;20451;-71
2021/08/03 01:07:00;;;;;;;8.93;4.72;;;;;;;12.51;100.00;100851.44;5066047;28;20346;-71
2021/08/03 01:09:31;;;;;;;8.43;5.30;;;;;;;12.46;100.00;100848.44;5063758;28;20049;-68
2021/08/03 01:12:08;;;;;;;10.75;4.72;;;;;;;12.32;100.00;100848.19;5064795;28;20101;-71
2021/08/03 01:14:40;;;;;;;10.18;5.82;;;;;;;12.27;100.00;100852.41;5066997;28;20129;-71
2021/08/03 01:17:13;;;;;;;11.93;5.80;;;;;;;12.27;100.00;100844.38;5067410;28;20068;-70
2021/08/03 01:19:48;;;;;;;9.55;5.10;;;;;;;12.23;100.00;100846.53;5064350;28;20355;-68
2021/08/03 01:22:32;;;;;;;10.35;5.38;;;;;;;12.20;100.00;100844.22;5061098;28;20040;-68
2021/08/03 01:25:08;;;;;;;8.60;4.88;;;;;;;12.17;100.00;100850.75;5069279;28;20049;-68
2021/08/03 01:28:17;;;;;;;10.77;5.53;;;;;;;12.23;100.00;100852.75;5070147;28;20098;-68
2021/08/03 01:30:53;;;;;;;12.63;5.65;;;;;;;12.09;100.00;100855.28;5068086;28;20036;-70
2021/08/03 01:33:25;;;;;;;10.75;6.10;;;;;;;12.04;100.00;100858.50;5069947;28;20106;-70
2021/08/03 01:35:53;;;;;;;10.98;5.45;;;;;;;12.01;100.00;100858.84;5069184;28;20036;-68
2021/08/03 01:38:23;;;;;;;9.27;4.65;;;;;;;12.18;100.00;100860.44;5069907;28;20331;-71
2021/08/03 01:40:52;;;;;;;8.30;4.60;;;;;;;12.11;100.00;100853.31;5066842;28;20048;-68
2021/08/03 01:43:20;;;;;;;6.90;3.92;;;;;;;12.15;100.00;100844.75;5064691;28;20044;-68
2021/08/03 01:45:52;;;;;;;7.32;3.92;;;;;;;12.08;100.00;100842.91;5069132;28;20093;-70
2021/08/03 01:48:20;;;;;;;8.98;4.43;;;;;;;12.00;100.00;100838.44;5068911;28;20051;-70
2021/08/03 01:50:49;;;;;;;11.70;4.75;;;;;;;11.99;100.00;100834.06;5067396;28;20040;-70
2021/08/03 01:53:19;;;;;;;11.70;5.53;;;;;;;11.98;100.00;100833.25;5065231;28;20040;-71
2021/08/03 01:55:47;;;;;;;11.52;5.18;;;;;;;11.99;100.00;100826.91;5066607;28;20048;-69
2021/08/03 01:58:16;;;;;;;6.63;4.10;;;;;;;12.01;100.00;100822.19;5066519;28;20391;-68
2021/08/03 02:00:44;;;;;;;6.32;3.75;;;;;;;12.01;100.00;100826.72;5066866;28;20432;-68
2021/08/03 02:03:14;;;;;;;7.97;4.30;;;;;;;12.03;100.00;100822.84;5065067;28;20095;-68
2021/08/03 02:05:44;;;;;;;8.60;5.38;;;;;;;12.01;100.00;100827.56;5067196;28;20075;-68
2021/08/03 02:08:12;;;;;;;10.18;4.88;;;;;;;11.98;100.00;100819.88;5064301;28;20110;-67
2021/08/03 02:10:40;;;;;;;6.53;4.28;;;;;;;11.92;100.00;100817.84;5065862;28;20578;-70
2021/08/03 02:13:09;;;;;;;9.13;4.45;;;;;;;11.88;100.00;100819.22;5064166;28;20118;-70
2021/08/03 02:15:37;;;;;;;10.52;4.95;;;;;;;11.93;100.00;100814.16;5067296;28;20041;-70
2021/08/03 02:18:05;;;;;;;8.52;4.07;;;;;;;11.98;100.00;100805.63;5065817;28;20321;-68
2021/08/03 02:20:35;;;;;;;10.35;4.65;;;;;;;11.95;100.00;100812.19;5063914;28;20352;-68
2021/08/03 02:23:03;;;;;;;7.38;4.25;;;;;;;11.98;100.00;100803.81;5064905;28;20371;-68
2021/08/03 02:25:30;;;;;;;6.45;4.28;;;;;;;12.07;100.00;100806.47;5062556;28;20099;-68
2021/08/03 02:27:59;;;;;;;8.52;4.72;;;;;;;12.01;100.00;100806.13;5066306;28;20361;-68
2021/08/03 02:30:27;;;;;;;12.38;5.85;;;;;;;12.07;100.00;100809.97;5063601;28;20048;-68
2021/08/03 02:32:58;;;;;;;10.63;4.57;;;;;;;12.07;100.00;100809.16;5063586;28;20577;-68
2021/08/03 02:35:30;;;;;;;11.07;5.05;;;;;;;12.10;100.00;100796.22;5067469;28;20428;-68
2021/08/03 02:38:01;;;;;;;12.48;5.40;;;;;;;12.09;100.00;100799.09;5065887;28;20040;-67
2021/08/03 02:40:29;;;;;;;10.20;5.22;;;;;;;12.05;100.00;100794.09;5069049;28;20443;-70
2021/08/03 02:42:57;;;;;;;10.85;6.00;;;;;;;11.97;100.00;100799.47;5067173;28;20270;-70
2021/08/03 02:45:26;;;;;;;12.13;5.70;;;;;;;12.00;100.00;100799.09;5070579;28;20363;-70
2021/08/03 02:47:58;;;;;;;13.05;7.03;;;;;;;11.91;100.00;100796.59;5070303;28;20040;-71
2021/08/03 02:50:27;;;;;;;13.50;6.47;;;;;;;11.84;100.00;100794.63;5064858;28;20325;-68
2021/08/03 02:52:57;;;;;;;11.45;7.15;;;;;;;11.88;100.00;100805.84;5069275;28;20427;-68
2021/08/03 02:55:33;;;;;;;12.82;7.10;;;;;;;11.82;100.00;100811.84;5067881;28;20114;-68
2021/08/03 02:58:04;;;;;;;20.85;7.97;;;;;;;11.80;100.00;100805.84;5070980;28;20370;-71
2021/08/03 03:00:34;;;;;;;18.45;7.45;;;;;;;11.80;100.00;100804.00;5068791;28;20092;-70
2021/08/03 03:03:09;;;;;;;16.23;7.85;;;;;;;11.78;100.00;100810.53;5063162;28;20048;-68
2021/08/03 03:05:38;;;;;;;10.70;7.37;;;;;;;11.87;100.00;100814.84;5067418;28;20467;-71
2021/08/03 03:08:09;;;;;;;16.17;7.40;;;;;;;11.82;100.00;100811.84;5067412;28;20150;-71
2021/08/03 03:10:43;;;;;;;15.73;7.85;;;;;;;11.68;100.00;100806.22;5067901;28;20094;-68
2021/08/03 03:13:16;;;;;;;17.20;9.02;;;;;;;11.62;100.00;100801.53;5065067;28;20098;-68
2021/08/03 03:15:43;;;;;;;20.40;8.90;;;;;;;11.65;100.00;100811.91;5068332;28;20315;-68
2021/08/03 03:18:12;;;;;;;15.52;8.52;;;;;;;11.64;100.00;100804.06;5069626;28;20041;-68
2021/08/03 03:20:40;;;;;;;17.83;8.50;;;;;;;11.60;100.00;100805.41;5067569;28;20048;-68
2021/08/03 03:23:08;;;;;;;16.60;8.55;;;;;;;11.62;100.00;100806.88;5065369;28;20048;-68
2021/08/03 03:25:36;;;;;;;26.08;9.93;;;;;;;11.61;100.00;100810.56;5062421;28;20044;-68
2021/08/03 03:28:06;;;;;;;18.30;8.65;;;;;;;11.50;100.00;100803.72;5066237;28;20102;-68
2021/08/03 03:30:34;;;;;;;24.70;11.07;;;;;;;11.46;100.00;100812.25;5066548;28;20101;-68
2021/08/03 03:33:04;;;;;;;28.15;11.23;;;;;;;11.43;100.00;100817.97;5066047;28;20452;-68
2021/08/03 03:35:34;;;;;;;19.23;9.57;;;;;;;11.54;100.00;100809.59;5069026;28;20094;-71
2021/08/03 03:38:03;;;;;;;18.80;8.88;;;;;;;11.57;100.00;100811.91;5070483;28;20290;-71
2021/08/03 03:40:31;;;;;;;19.63;8.95;;;;;;;11.54;100.00;100804.25;5065349;28;20324;-71
2021/08/03 03:42:59;;;;;;;19.35;8.90;;;;;;;11.48;100.00;100808.44;5065264;28;20045;-71
2021/08/03 03:45:29;;;;;;;16.00;8.90;;;;;;;11.53;100.00;100800.72;5064753;28;20044;-72
2021/08/03 03:47:59;;;;;;;18.52;9.18;;;;;;;11.56;100.00;100809.41;5065267;28;20056;-73
2021/08/03 03:50:31;;;;;;;18.75;8.80;;;;;;;11.56;100.00;100796.88;5068802;28;20106;-74
2021/08/03 03:53:06;;;;;;;20.75;9.65;;;;;;;11.51;100.00;100799.19;5063212;28;20067;-74
2021/08/03 03:55:35;;;;;;;19.45;9.40;;;;;;;11.54;100.00;100799.72;5067515;28;20102;-76
2021/08/03 03:58:03;;;;;;;20.40;11.18;;;;;;;11.55;100.00;100800.53;5067487;28;20048;-69
2021/08/03 04:00:36;;;;;;;22.17;11.50;;;;;;;11.65;100.00;100800.34;5064795;28;20113;-70
2021/08/03 04:03:05;;;;;;;22.77;10.55;;;;;;;11.60;100.00;100797.38;5064135;28;20052;-70
2021/08/03 04:05:36;;;;;;;25.67;11.35;;;;;;;11.60;100.00;100803.53;5066328;28;20072;-70
2021/08/03 04:08:04;;;;;;;28.77;11.68;;;;;;;11.63;100.00;100800.53;5067632;28;20066;-70
2021/08/03 04:10:34;;;;;;;24.40;10.82;;;;;;;11.61;100.00;100802.56;5065057;28;20372;-70
2021/08/03 04:13:02;;;;;;;25.02;11.20;;;;;;;11.58;100.00;100794.88;5065759;28;20275;-68
2021/08/03 04:15:31;;;;;;;21.25;11.40;;;;;;;11.58;100.00;100800.22;5067871;28;20040;-68
2021/08/03 04:18:01;;;;;;;26.52;11.45;;;;;;;11.56;100.00;100796.88;5064566;28;20090;-68
2021/08/03 04:20:29;;;;;;;26.40;12.38;;;;;;;11.68;100.00;100795.50;5068321;28;20059;-68
2021/08/03 04:22:57;;;;;;;27.90;11.85;;;;;;;11.66;100.00;100794.81;5064109;28;20040;-68
2021/08/03 04:25:25;;;;;;;25.58;12.70;;;;;;;11.66;100.00;100802.03;5067658;28;20044;-68
2021/08/03 04:27:53;;;;;;;25.05;11.23;;;;;;;11.71;100.00;100794.34;5067844;28;20052;-68
2021/08/03 04:30:22;;;;;;;26.48;12.00;;;;;;;11.76;100.00;100796.50;5066702;28;20097;-68
2021/08/03 04:32:49;;;;;;;22.83;11.00;;;;;;;11.74;100.00;100799.34;5065030;28;20047;-68
2021/08/03 04:35:19;;;;;;;26.52;11.80;;;;;;;11.76;100.00;100799.16;5066614;28;20048;-68
2021/08/03 04:37:48;;;;;;;21.45;11.35;;;;;;;11.77;100.00;100796.31;5068161;28;20040;-68
2021/08/03 04:40:19;;;;;;;25.45;11.98;;;;;;;11.79;100.00;100796.16;5067451;28;20131;-68
2021/08/03 04:42:47;;;;;;;24.35;11.02;;;;;;;11.81;100.00;100794.16;5065355;28;20045;-68
2021/08/03 04:45:15;;;;;;;27.17;12.45;;;;;;;11.82;100.00;100795.78;5067051;28;20052;-68
2021/08/03 04:47:45;;;;;;;25.38;11.85;;;;;;;11.86;100.00;100791.78;5065079;28;20094;-68
2021/08/03 04:50:14;;;;;;;23.52;11.52;;;;;;;11.94;100.00;100794.47;5066324;28;20420;-68
2021/08/03 04:52:43;;;;;;;28.25;11.52;;;;;;;11.89;100.00;100804.81;5063703;28;20048;-68
2021/08/03 04:55:12;;;;;;;37.33;14.48;;;;;;;11.81;100.00;100794.16;5066757;28;20064;-68
2021/08/03 04:57:41;;;;;;;37.53;14.20;;;;;;;11.87;100.00;100790.78;5064255;28;20040;-68
2021/08/03 05:00:11;;;;;;;52.00;15.85;;;;;;;11.80;100.00;100798.66;5063978;28;20098;-68
2021/08/03 05:02:39;;;;;;;33.38;13.98;;;;;;;11.89;100.00;100808.34;5064722;28;20040;-68
2021/08/03 05:05:09;;;;;;;40.63;15.48;;;;;;;11.85;100.00;100795.44;5067956;28;20054;-68
2021/08/03 05:07:38;;;;;;;37.22;14.23;;;;;;;11.83;100.00;100802.81;5066835;28;20455;-68
2021/08/03 05:10:09;;;;;;;30.38;13.00;;;;;;;11.96;100.00;100808.50;5067695;28;20359;-68
2021/08/03 05:12:37;;;;;;;37.22;14.35;;;;;;;12.07;100.00;100801.94;5066359;28;20086;-68
2021/08/03 05:15:08;;;;;;;29.27;13.50;;;;;;;12.13;100.00;100803.09;5069015;28;20352;-68
2021/08/03 05:17:36;;;;;;;28.67;12.90;;;;;;;12.17;100.00;100805.22;5061251;28;20036;-68
2021/08/03 05:20:05;;;;;;;35.38;12.95;;;;;;;12.29;100.00;100812.88;5064200;28;20436;-68
2021/08/03 05:22:35;;;;;;;31.33;12.68;;;;;;;12.35;100.00;100815.69;5062968;28;20074;-68
2021/08/03 05:25:04;;;;;;;30.77;13.38;;;;;;;12.34;100.00;100811.34;5063180;28;20123;-68
2021/08/03 05:27:34;;;;;;;25.73;11.13;;;;;;;12.44;100.00;100816.50;5065961;28;20056;-68
2021/08/03 05:30:02;;;;;;;26.08;11.45;;;;;;;12.47;100.00;100809.97;5063862;28;20055;-68
2021/08/03 05:32:30;;;;;;;24.00;10.65;;;;;;;12.52;100.00;100807.59;5063984;28;20052;-68
2021/08/03 05:34:58;;;;;;;23.05;12.07;;;;;;;12.57;100.00;100805.19;5067746;28;20036;-68
2021/08/03 05:37:25;;;;;;;25.40;11.63;;;;;;;12.62;100.00;100802.84;5064765;28;20045;-68
2021/08/03 05:39:54;;;;;;;25.00;11.60;;;;;;;12.74;100.00;100804.09;5057966;28;20090;-68
2021/08/03 05:42:22;;;;;;;26.85;10.80;;;;;;;12.78;100.00;100790.34;5064283;28;20402;-68
2021/08/03 05:44:52;;;;;;;26.25;11.18;;;;;;;12.71;100.00;100793.72;5065780;28;20078;-68
2021/08/03 05:47:21;;;;;;;21.02;11.00;;;;;;;12.72;100.00;100792.72;5067758;28;20390;-68
2021/08/03 05:49:49;;;;;;;23.45;12.05;;;;;;;12.71;100.00;100791.03;5064707;28;20439;-69
2021/08/03 05:52:18;;;;;;;25.95;11.43;;;;;;;12.55;100.00;100796.53;5063460;28;20053;-69
2021/08/03 05:54:45;;;;;;;30.15;12.38;;;;;;;12.50;100.00;100788.16;5065098;28;20336;-69
2021/08/03 05:57:13;;;;;;;33.63;13.05;;;;;;;12.49;100.00;100791.84;5063617;28;20113;-69
2021/08/03 05:59:41;;;;;;;29.65;11.95;;;;;;;12.62;100.00;100784.09;5066117;28;20188;-68
2021/08/03 06:02:10;;;;;;;25.85;11.93;;;;;;;12.84;100.00;100786.94;5062556;28;20041;-68
2021/08/03 06:04:38;;;;;;;26.33;12.57;;;;;;;13.01;100.00;100787.66;5066806;28;20044;-68
2021/08/03 06:07:08;;;;;;;25.90;11.80;;;;;;;13.07;100.00;100782.41;5060843;28;20059;-68
2021/08/03 06:09:37;;;;;;;25.20;11.63;;;;;;;13.16;100.00;100787.72;5061628;28;20090;-69
2021/08/03 06:12:05;;;;;;;25.13;11.80;;;;;;;12.89;100.00;100781.91;5065246;28;20421;-69
2021/08/03 06:14:36;;;;;;;28.95;12.52;;;;;;;12.85;100.00;100785.94;5069170;28;20117;-68
2021/08/03 06:17:07;;;;;;;26.60;12.07;;;;;;;12.99;100.00;100779.78;5069076;28;20320;-68
2021/08/03 06:19:42;;;;;;;22.92;10.77;;;;;;;13.07;100.00;100779.72;5067432;28;20110;-69
2021/08/03 06:22:10;;;;;;;;;;;;;;;12.99;100.00;100777.13;5067257;28;20048;-69
2021/08/03 06:24:39;;;;;;;18.90;10.23;;;;;;;13.01;100.00;100775.09;5067276;28;20365;-69
2021/08/03 06:27:08;;;;;;;22.20;10.40;;;;;;;13.08;100.00;100769.84;5069456;28;20060;-69
2021/08/03 06:29:38;;;;;;;23.35;11.45;;;;;;;12.92;100.00;100774.31;5071383;28;20056;-69
2021/08/03 06:32:07;;;;;;;22.38;11.75;;;;;;;13.03;100.00;100777.59;5062988;28;20041;-69
2021/08/03 06:34:39;;;;;;;27.00;12.50;;;;;;;13.13;100.00;100778.19;5065532;28;20090;-69
2021/08/03 06:37:07;;;;;;;27.40;13.95;;;;;;;13.20;100.00;100779.13;5067456;28;20043;-69
2021/08/03 06:39:35;;;;;;;32.22;13.38;;;;;;;13.19;100.00;100772.09;5062201;28;20040;-69
2021/08/03 06:42:07;;;;;;;26.85;13.02;;;;;;;13.40;100.00;100774.09;5065583;28;20206;-69
2021/08/03 06:44:43;;;;;;;25.20;12.10;;;;;;;13.29;100.00;100771.81;5067237;28;20440;-69
2021/08/03 06:47:12;;;;;;;27.65;13.45;;;;;;;12.90;100.00;100773.66;5066925;28;20048;-69
2021/08/03 06:49:43;;;;;;;29.33;13.82;;;;;;;12.96;100.00;100777.47;5068090;28;20048;-69
2021/08/03 06:52:13;;;;;;;26.48;12.65;;;;;;;13.04;100.00;100773.88;5066195;28;20109;-69
2021/08/03 06:54:49;;;;;;;25.33;12.20;;;;;;;13.22;100.00;100771.72;5069448;28;20047;-69
2021/08/03 06:57:18;;;;;;;30.85;13.20;;;;;;;13.03;100.00;100767.72;5069390;28;20459;-69
2021/08/03 06:59:50;;;;;;;29.40;13.88;;;;;;;13.01;100.00;100768.88;5068820;28;20044;-69
2021/08/03 07:02:23;;;;;;;23.88;12.15;;;;;;;12.96;100.00;100764.09;5063354;28;20044;-69
2021/08/03 07:04:57;;;;;;;23.85;11.95;;;;;;;14.06;100.00;100765.31;5067404;28;20052;-69
2021/08/03 07:07:26;;;;;;;18.00;10.60;;;;;;;14.65;100.00;100750.09;5069952;28;20052;-69
2021/08/03 07:09:55;;;;;;;18.08;10.43;;;;;;;15.28;100.00;100735.94;5067740;28;20348;-70
2021/08/03 07:12:23;;;;;;;19.02;9.73;;;;;;;15.36;100.00;100726.88;5065489;28;20040;-69
2021/08/03 07:14:51;;;;;;;17.48;8.57;;;;;;;15.97;100.00;100720.81;5070855;28;20451;-69
2021/08/03 07:17:19;;;;;;;14.90;8.38;;;;;;;15.34;100.00;100727.09;5066472;28;20106;-69
2021/08/03 07:19:48;;;;;;;16.42;8.82;;;;;;;15.97;100.00;100721.63;5068664;28;20051;-69
2021/08/03 07:22:17;;;;;;;11.85;7.07;;;;;;;15.41;100.00;100733.34;5065098;28;20432;-69
2021/08/03 07:24:47;;;;;;;20.50;8.73;;;;;;;15.11;100.00;100728.16;5063932;28;20049;-68
2021/08/03 07:27:15;;;;;;;14.18;8.20;;;;;;;15.59;100.00;100729.28;5067919;28;20040;-68
2021/08/03 07:29:43;;;;;;;15.77;8.45;;;;;;;16.22;100.00;100725.66;5068449;28;20052;-70
2021/08/03 07:32:12;;;;;;;16.77;8.13;;;;;;;16.25;100.00;100730.66;5067216;28;20051;-70
2021/08/03 07:34:41;;;;;;;15.10;8.88;;;;;;;16.78;100.00;100721.84;5066078;28;20078;-70
2021/08/03 07:37:10;;;;;;;15.88;7.82;;;;;;;18.30;100.00;100719.03;5070614;28;20090;-71
2021/08/03 07:39:40;;;;;;;11.10;7.45;;;;;;;18.54;100.00;100713.88;5063181;28;20044;-73
2021/08/03 07:42:09;;;;;;;15.77;8.52;;;;;;;18.07;100.00;100716.84;5067436;28;20040;-73
2021/08/03 07:44:37;;;;;;;15.43;8.55;;;;;;;17.57;100.00;100730.94;5067502;28;20048;-73
2021/08/03 07:47:06;;;;;;;11.70;6.85;;;;;;;17.24;100.00;100731.81;5068925;28;20053;-71
2021/08/03 07:49:34;;;;;;;10.32;6.93;;;;;;;18.49;100.00;100732.66;5071421;28;20040;-71
2021/08/03 07:52:02;;;;;;;9.90;6.95;;;;;;;20.83;100.00;100723.91;5063814;28;20079;-72
2021/08/03 07:54:30;;;;;;;11.07;6.85;;;;;;;21.84;100.00;100712.88;5066467;28;20052;-73
2021/08/03 07:57:00;;;;;;;11.95;6.25;;;;;;;19.80;100.00;100730.06;5067532;28;20142;-72
2021/08/03 07:59:27;;;;;;;11.82;7.20;;;;;;;19.24;100.00;100732.69;5066117;28;20040;-72
2021/08/03 08:01:55;;;;;;;9.60;6.47;;;;;;;18.24;100.00;100733.41;5063024;28;20040;-72
2021/08/03 08:04:23;;;;;;;13.80;7.25;;;;;;;19.13;100.00;100729.91;5068699;28;20036;-71
2021/08/03 08:06:51;;;;;;;10.52;6.47;;;;;;;19.63;100.00;100720.88;5068824;28;20037;-71
2021/08/03 08:09:19;;;;;;;12.15;6.72;;;;;;;16.80;100.00;100742.16;5068916;28;20657;-71
2021/08/03 08:11:47;;;;;;;14.45;6.88;;;;;;;18.58;100.00;100737.59;5065204;28;20059;-71
2021/08/03 08:14:16;;;;;;;11.27;6.72;;;;;;;19.61;100.00;100734.63;5070639;28;20324;-72
2021/08/03 08:16:45;;;;;;;10.02;5.88;;;;;;;19.54;100.00;100728.47;5069836;28;20047;-72
2021/08/03 08:19:13;;;;;;;16.10;6.72;;;;;;;21.22;100.00;100714.25;5067874;28;20461;-72
2021/08/03 08:21:40;;;;;;;12.95;6.63;;;;;;;19.04;100.00;100718.53;5064826;28;20094;-72
2021/08/03 08:24:08;;;;;;;14.05;7.50;;;;;;;19.80;100.00;100735.47;5064856;28;20429;-72
2021/08/03 08:26:36;;;;;;;8.57;5.55;;;;;;;20.82;100.00;100714.91;5068076;28;20312;-73
2021/08/03 08:29:04;;;;;;;10.85;5.40;;;;;;;21.03;100.00;100715.41;5065744;28;20041;-72
2021/08/03 08:31:34;;;;;;;6.95;5.07;;;;;;;20.83;100.00;100707.63;5065990;28;20106;-72
2021/08/03 08:34:02;;;;;;;12.65;6.32;;;;;;;21.39;100.00;100713.50;5063606;28;20041;-73
2021/08/03 08:36:30;;;;;;;10.65;5.85;;;;;;;20.11;100.00;100717.38;5062908;28;20045;-72
2021/08/03 08:38:58;;;;;;;10.23;5.15;;;;;;;20.39;100.00;100729.53;5064066;28;20049;-73
2021/08/03 08:41:26;;;;;;;10.90;6.05;;;;;;;18.60;100.00;100731.94;5066006;28;20044;-73
2021/08/03 08:43:55;;;;;;;11.95;6.38;;;;;;;17.83;100.00;100746.25;5063538;28;20121;-72
2021/08/03 08:46:23;;;;;;;10.40;5.82;;;;;;;17.32;100.00;100745.09;5068456;28;20048;-72
2021/08/03 08:48:53;;;;;;;9.82;5.53;;;;;;;17.47;100.00;100735.94;5068246;28;20036;-72
2021/08/03 08:51:21;;;;;;;10.55;5.80;;;;;;;18.04;100.00;100738.91;5067078;28;20036;-72
2021/08/03 08:53:50;;;;;;;11.45;6.10;;;;;;;19.12;100.00;100731.78;5063492;28;20565;-72
2021/08/03 08:56:18;;;;;;;16.38;7.97;;;;;;;17.02;100.00;100736.59;5060742;28;20049;-73
2021/08/03 08:58:46;;;;;;;12.75;6.82;;;;;;;17.92;100.00;100732.50;5065456;28;20048;-72
2021/08/03 09:01:14;;;;;;;10.75;6.22;;;;;;;19.73;100.00;100738.25;5064660;28;20041;-72
2021/08/03 09:03:46;;;;;;;10.77;5.80;;;;;;;20.44;100.00;100726.94;5062917;28;20033;-73
2021/08/03 09:06:19;;;;;;;10.73;6.10;;;;;;;21.82;100.00;100725.88;5065778;28;20040;-73
2021/08/03 09:08:49;;;;;;;10.93;6.38;;;;;;;23.27;100.00;100723.84;5066898;28;20044;-73
2021/08/03 09:11:18;;;;;;;10.65;5.80;;;;;;;23.59;100.00;100726.75;5064675;28;20094;-73
2021/08/03 09:13:58;;;;;;;9.48;5.30;;;;;;;23.52;100.00;100726.09;5066349;28;20048;-74
2021/08/03 09:16:27;;;;;;;9.60;5.68;;;;;;;23.30;100.00;100724.16;5066538;28;20094;-74
2021/08/03 09:18:57;;;;;;;8.38;5.25;;;;;;;22.75;100.00;100725.72;5066459;28;20056;-74
2021/08/03 09:21:28;;;;;;;10.60;6.25;;;;;;;19.88;100.00;100727.06;5064739;28;20099;-74
2021/08/03 09:23:57;;;;;;;9.18;6.32;;;;;;;21.34;100.00;100719.66;5059926;28;20344;-73
2021/08/03 09:26:46;;;;;;;9.77;5.72;;;;;;;20.25;100.00;100724.28;5065249;28;20044;-74
2021/08/03 09:29:16;;;;;;;10.10;5.90;;;;;;;21.75;100.00;100725.19;5066429;28;20106;-73
2021/08/03 09:31:52;;;;;;;9.68;6.25;;;;;;;20.99;100.00;100723.19;5064680;28;20041;-74
2021/08/03 09:34:20;;;;;;;14.75;8.98;;;;;;;19.14;100.00;100728.84;5064512;28;20071;-74
2021/08/03 09:36:52;;;;;;;12.07;6.75;;;;;;;20.02;100.00;100729.63;5064922;28;20052;-73
2021/08/03 09:39:41;;;;;;;8.55;5.97;;;;;;;21.02;100.00;100724.59;5064983;28;20431;-73
2021/08/03 09:42:11;;;;;;;9.20;5.72;;;;;;;20.29;100.00;100719.22;5061671;28;20193;-73
2021/08/03 09:44:48;;;;;;;11.38;5.97;;;;;;;19.30;100.00;100720.16;5063944;28;20056;-73
2021/08/03 09:47:16;;;;;;;10.02;6.13;;;;;;;18.83;100.00;100723.25;5065633;28;20055;-73
2021/08/03 09:49:48;;;;;;;10.32;6.97;;;;;;;19.72;100.00;100719.53;5066104;28;20055;-73
2021/08/03 09:52:20;;;;;;;15.88;6.90;;;;;;;20.77;100.00;100723.75;5062689;28;20070;-73
2021/08/03 09:54:48;;;;;;;10.57;6.60;;;;;;;22.68;100.00;100717.72;5066735;28;20467;-73
2021/08/03 09:57:24;;;;;;;12.20;7.72;;;;;;;22.01;100.00;100723.81;5065248;28;20048;-74
2021/08/03 09:59:54;;;;;;;13.10;7.07;;;;;;;22.38;100.00;100714.47;5067568;28;20439;-73
2021/08/03 10:02:24;;;;;;;14.82;6.13;;;;;;;23.09;100.00;100711.28;5061623;28;20110;-74
2021/08/03 10:04:53;;;;;;;7.32;5.28;;;;;;;22.46;100.00;100708.63;5062979;28;20060;-73
2021/08/03 10:07:23;;;;;;;9.75;5.70;;;;;;;22.81;100.00;100704.84;5067086;28;20359;-74
2021/08/03 10:09:51;;;;;;;9.02;5.82;;;;;;;21.17;100.00;100705.16;5060996;28;20345;-73
2021/08/03 10:12:20;;;;;;;8.63;5.75;;;;;;;20.63;100.00;100698.69;5064500;28;20098;-73
2021/08/03 10:14:48;;;;;;;11.32;6.63;;;;;;;21.42;100.00;100688.56;5066572;28;20048;-73
2021/08/03 10:17:16;;;;;;;9.15;5.13;;;;;;;21.73;100.00;100700.97;5062457;28;20048;-73
2021/08/03 10:19:44;;;;;;;9.65;5.78;;;;;;;22.85;100.00;100695.97;5065351;28;20051;-74
2021/08/03 10:22:22;;;;;;;9.85;6.25;;;;;;;23.68;100.00;100691.69;5062728;28;20044;-74
2021/08/03 10:24:54;;;;;;;8.63;6.13;;;;;;;22.26;100.00;100681.88;5059690;28;20382;-73
2021/08/03 10:27:22;;;;;;;10.57;5.78;;;;;;;22.64;100.00;100689.34;5066326;28;20313;-73
2021/08/03 10:29:51;;;;;;;9.70;5.72;;;;;;;23.37;100.00;100680.38;5065634;28;20053;-73
2021/08/03 10:32:39;;;;;;;9.25;6.20;;;;;;;23.35;100.00;100680.63;5060627;28;20375;-73
2021/08/03 10:35:13;;;;;;;10.52;6.45;;;;;;;22.29;100.00;100676.75;5061863;28;20478;-72
2021/08/03 10:38:10;;;;;;;9.00;5.15;;;;;;;23.35;100.00;100677.91;5063821;28;20040;-73
2021/08/03 10:41:02;;;;;;;8.40;5.95;;;;;;;19.47;100.00;100671.66;5065318;28;20052;-73
2021/08/03 10:43:54;;;;;;;13.57;8.38;;;;;;;19.56;100.00;100674.88;5060802;28;20114;-72
2021/08/03 10:46:38;;;;;;;7.68;6.82;;;;;;;21.28;100.00;100672.56;5060527;28;20091;-73
2021/08/03 10:49:07;;;;;;;8.93;7.33;;;;;;;22.19;100.00;100658.34;5065271;28;20094;-72
2021/08/03 10:51:39;;;;;;;7.60;6.55;;;;;;;19.76;100.00;100658.38;5066092;28;20040;-72
2021/08/03 10:54:12;;;;;;;11.38;7.07;;;;;;;19.66;100.00;100666.22;5060152;28;20037;-73
2021/08/03 10:57:22;;;;;;;9.63;7.25;;;;;;;19.70;100.00;100662.84;5065119;28;20051;-74
2021/08/03 11:00:01;;;;;;;11.57;8.18;;;;;;;21.39;100.00;100662.75;5069881;28;20052;-73
2021/08/03 11:02:43;;;;;;;13.30;8.48;;;;;;;23.16;100.00;100668.38;5063169;28;21522;-74
2021/08/03 11:05:31;;;;;;;8.98;8.00;;;;;;;22.29;100.00;100665.06;5067108;28;20065;-74
2021/08/03 11:08:42;;;;;;;9.10;8.20;;;;;;;20.87;100.00;100670.81;5066968;28;20044;-74
2021/08/03 11:11:13;;;;;;;11.45;9.10;;;;;;;21.40;100.00;100663.56;5065284;28;20069;-74
2021/08/03 11:13:44;;;;;;;11.40;9.13;;;;;;;19.80;100.00;100665.03;5063489;28;20048;-74
2021/08/03 11:16:54;;;;;;;11.07;8.10;;;;;;;20.35;100.00;100669.50;5066903;28;20444;-73
2021/08/03 11:19:39;;;;;;;11.23;9.35;;;;;;;20.51;100.00;100659.03;5066678;28;20048;-73
2021/08/03 11:22:08;;;;;;;16.30;11.35;;;;;;;20.96;100.00;100659.34;5066511;28;20051;-74
2021/08/03 11:24:42;;;;;;;14.00;11.85;;;;;;;20.48;100.00;100654.91;5068254;28;20115;-73
2021/08/03 11:27:11;;;;;;;16.08;12.27;;;;;;;19.04;100.00;100659.81;5066022;28;20044;-73